STATIONS

Date Time Temperature Humidity WindSpeed WindDirection Rainfall PM1 (µg/m3) PM2.5 (µg/m3) PM4 (µg/m3) PM10 (µg/m3) Total
2019-03-23 00:00:13 29.485 37.92 0 0.1 0 114 114 115 129 129
2019-03-23 00:01:13 29.485 37.95 0 0.1 0 117 117 118 133 133
2019-03-23 00:02:14 29.485 37.91 0 0.1 0 124 124 125 141 141
2019-03-23 00:03:14 29.485 37.91 0 0.1 0 126 126 127 144 144
2019-03-23 00:04:15 29.505 37.92 0 0.1 0 124 124 125 141 141
2019-03-23 00:05:15 29.505 37.92 0 0.1 0 113 113 114 129 129
2019-03-23 00:06:16 29.505 37.92 0 0.1 0 113 113 114 130 130
2019-03-23 00:07:16 29.515 37.9 0 0.1 0 111 111 112 127 127
2019-03-23 00:08:17 29.515 37.84 0 0.1 0 111 112 113 127 127
2019-03-23 00:09:17 29.515 37.85 0 0.1 0 112 112 112 127 127
2019-03-23 00:10:18 29.525 37.84 0 0.1 0 113 113 113 129 129
2019-03-23 00:11:18 29.525 37.8 0 0.1 0 113 113 114 129 129
2019-03-23 00:12:19 29.535 37.91 0 0.1 0 115 115 115 134 134
2019-03-23 00:13:19 29.535 37.8 0 0.1 0 123 123 123 140 140
2019-03-23 00:14:20 29.545 37.81 0 0.1 0 124 124 125 141 141
2019-03-23 00:15:20 29.545 37.83 0 0.1 0 127 127 128 146 146
2019-03-23 00:16:21 29.555 37.84 0 0.1 0 128 128 129 146 146
2019-03-23 00:17:21 29.555 37.75 0 0.1 0 128 128 129 147 147
2019-03-23 00:18:22 29.555 37.75 0 0.1 0 125 125 126 144 144
2019-03-23 00:19:22 29.565 37.77 0 0.1 0 121 122 122 139 139
2019-03-23 00:20:23 29.565 37.8 0 0.1 0 117 118 118 135 135
2019-03-23 00:21:25 29.575 37.8 0 0.1 0 123 123 123 142 142
2019-03-23 00:22:24 29.565 37.8 0 0.1 0 121 121 122 138 138
2019-03-23 00:23:24 29.575 37.8 0 0.1 0 125 126 126 144 149
2019-03-23 00:24:25 29.585 37.76 0 0.1 0 124 125 125 142 142
2019-03-23 00:25:25 29.585 37.68 0 0.1 0 119 119 120 135 135
2019-03-23 00:26:26 29.585 37.8 0 0.1 0 117 117 117 134 134
2019-03-23 00:27:26 29.595 37.76 0 0.1 0 114 114 115 135 135
2019-03-23 00:28:26 29.595 37.8 0 0.1 0 112 112 112 127 127
2019-03-23 00:29:27 29.595 37.8 0 0.1 0 110 110 111 125 125
2019-03-23 00:30:27 29.605 37.8 0 0.1 0 111 112 112 128 128
2019-03-23 00:31:28 29.605 37.77 0 0.1 0 114 114 115 130 130
2019-03-23 00:32:29 29.605 37.8 0 0.1 0 115 116 116 133 133
2019-03-23 00:33:29 29.615 37.81 0 0.1 0 111 111 112 128 128
2019-03-23 00:34:29 29.615 37.76 0 0.1 0 110 111 111 126 126
2019-03-23 00:35:30 29.625 37.75 0 0.1 0 113 114 114 128 128
2019-03-23 00:36:30 29.625 37.76 0 0.1 0 119 119 120 136 167
2019-03-23 00:37:31 29.625 37.76 0 0.1 0 117 117 118 133 133
2019-03-23 00:38:31 29.625 37.65 0 0.1 0 118 118 118 134 134
2019-03-23 00:39:32 29.635 37.68 0 0.1 0 117 117 118 133 133
2019-03-23 00:40:32 29.635 37.68 0 0.1 0 126 126 127 144 144
2019-03-23 00:41:33 29.645 37.68 0 0.1 0 124 124 125 141 141
2019-03-23 00:42:33 29.635 37.68 0 0.1 0 124 125 125 141 141
2019-03-23 00:43:34 29.645 37.68 0 0.1 0 126 126 127 143 143
2019-03-23 00:44:34 29.645 37.64 0 0.1 0 117 117 118 134 134
2019-03-23 00:45:35 29.645 37.64 0 0.1 0 117 118 118 134 134
2019-03-23 00:46:35 29.655 37.6 0 0.1 0 117 117 118 133 133
2019-03-23 00:47:36 29.655 37.67 0 0.1 0 117 117 118 135 141
2019-03-23 00:48:36 29.655 37.76 0 0.1 0 121 121 122 137 137
2019-03-23 00:49:37 29.655 37.64 0 0.1 0 125 126 126 143 143
2019-03-23 00:50:37 29.665 37.64 0 0.1 0 124 125 125 141 141
2019-03-23 00:51:37 29.655 37.68 0 0.1 0 127 127 127 144 144
2019-03-23 00:52:38 29.665 37.64 0 0.1 0 124 124 125 142 142
2019-03-23 00:53:38 29.675 37.67 0 0.1 0 124 125 125 141 141
2019-03-23 00:54:39 29.675 37.68 0 0.1 0 122 122 123 139 139
2019-03-23 00:55:39 29.675 37.64 0 0.1 0 118 119 119 139 142
2019-03-23 00:56:40 29.675 37.64 0 0.1 0 121 122 122 138 138
2019-03-23 00:57:41 29.675 37.68 0 0.1 0 123 124 124 140 140
2019-03-23 00:58:41 29.685 37.6 0 0.1 0 126 127 127 144 155
2019-03-23 00:59:43 29.685 37.64 0 0.1 0 125 125 126 142 142
2019-03-23 01:00:42 29.685 37.64 0 0.1 0 127 127 128 145 145
2019-03-23 01:01:42 29.685 37.64 0 0.1 0 128 128 128 146 146
2019-03-23 01:02:43 29.695 37.69 0 0.1 0 126 126 127 144 144
2019-03-23 01:03:43 29.685 37.69 0 0.1 0 124 124 125 141 141
2019-03-23 01:04:44 29.695 37.64 0 0.1 0 124 124 125 142 142
2019-03-23 01:05:44 29.695 37.69 0 0.1 0 126 127 128 145 145